createdAt,value
2022-12-08T00:00:15.091Z,30.20
2022-12-08T00:02:55.149Z,27.15
2022-12-08T00:06:07.084Z,26.90
2022-12-08T00:09:19.078Z,29.00
2022-12-08T00:12:18.075Z,29.10
2022-12-08T00:14:54.777Z,28.50
2022-12-08T00:17:41.071Z,26.48
2022-12-08T00:20:22.074Z,28.60
2022-12-08T00:23:16.068Z,28.65
2022-12-08T00:26:04.087Z,28.75
2022-12-08T00:28:45.103Z,27.13
2022-12-08T00:31:32.160Z,25.02
2022-12-08T00:34:07.884Z,26.35
2022-12-08T00:36:54.090Z,26.85
2022-12-08T00:39:34.106Z,26.52
2022-12-08T00:42:28.106Z,29.58
2022-12-08T00:45:15.114Z,26.42
2022-12-08T00:47:55.126Z,29.05
2022-12-08T00:50:42.084Z,25.95
2022-12-08T00:53:22.123Z,27.92
2022-12-08T00:56:16.100Z,26.80
2022-12-08T00:59:03.123Z,26.45
2022-12-08T01:01:43.121Z,27.02
2022-12-08T01:04:37.133Z,24.52
2022-12-08T01:07:24.079Z,26.17
2022-12-08T01:09:58.069Z,26.35
2022-12-08T01:12:45.116Z,26.42
2022-12-08T01:15:18.386Z,26.25
2022-12-08T01:18:05.135Z,27.73
2022-12-08T01:20:38.168Z,29.00
2022-12-08T01:23:25.090Z,29.40
2022-12-08T01:25:58.388Z,27.98
2022-12-08T01:28:53.110Z,27.65
2022-12-08T01:31:47.117Z,28.25
2022-12-08T01:34:34.109Z,28.20
2022-12-08T01:37:15.181Z,25.88
2022-12-08T01:40:02.527Z,26.05
2022-12-08T01:42:45.116Z,24.88
2022-12-08T01:45:37.130Z,26.17
2022-12-08T01:48:26.177Z,25.48
2022-12-08T01:51:14.127Z,25.05
2022-12-08T01:53:54.155Z,25.52
2022-12-08T01:57:02.129Z,24.13
2022-12-08T01:59:44.200Z,23.67
2022-12-08T02:02:43.247Z,24.40
2022-12-08T02:05:40.111Z,25.52
2022-12-08T02:08:35.114Z,24.23
2022-12-08T02:11:29.112Z,25.58
2022-12-08T02:14:27.097Z,24.83
2022-12-08T02:17:50.128Z,22.65
2022-12-08T02:20:51.114Z,23.25
2022-12-08T02:24:04.180Z,23.23
2022-12-08T02:26:49.232Z,23.70
2022-12-08T02:30:00.169Z,23.45
2022-12-08T02:33:22.107Z,22.77
2022-12-08T02:36:45.127Z,22.75
2022-12-08T02:39:51.119Z,24.88
2022-12-08T02:43:00.147Z,19.52
2022-12-08T02:45:52.255Z,20.83
2022-12-08T02:48:41.156Z,21.77
2022-12-08T02:51:14.208Z,22.27
2022-12-08T02:54:02.127Z,21.67
2022-12-08T02:56:41.213Z,23.15
2022-12-08T02:59:37.140Z,23.67
2022-12-08T03:02:16.554Z,24.83
2022-12-08T03:05:11.140Z,23.73
2022-12-08T03:08:02.235Z,24.05
2022-12-08T03:10:56.136Z,25.50
2022-12-08T03:13:41.203Z,24.38
2022-12-08T03:16:36.155Z,24.42
2022-12-08T03:19:29.209Z,23.98
2022-12-08T03:22:18.151Z,24.10
2022-12-08T03:24:53.208Z,21.75
2022-12-08T03:27:40.151Z,23.00
2022-12-08T03:30:14.282Z,22.55
2022-12-08T03:33:08.167Z,21.23
2022-12-08T03:35:53.149Z,21.10
2022-12-08T03:38:56.157Z,23.25
2022-12-08T03:41:43.165Z,22.20
2022-12-08T03:44:16.248Z,21.75
2022-12-08T03:47:03.151Z,21.58
2022-12-08T03:49:43.135Z,22.30
2022-12-08T03:52:31.214Z,21.50
2022-12-08T03:55:04.247Z,21.70
2022-12-08T03:57:51.150Z,20.92
2022-12-08T04:00:31.171Z,20.65
2022-12-08T04:03:25.191Z,20.98
2022-12-08T04:06:20.161Z,22.08
2022-12-08T04:09:14.173Z,20.75
2022-12-08T04:12:01.156Z,20.13
2022-12-08T04:14:34.274Z,19.23
2022-12-08T04:17:21.145Z,20.08
2022-12-08T04:19:54.309Z,19.80
2022-12-08T04:22:41.148Z,22.27
2022-12-08T04:25:22.140Z,19.38
2022-12-08T04:28:09.170Z,19.73
2022-12-08T04:30:49.167Z,18.98
2022-12-08T04:33:36.175Z,20.23
2022-12-08T04:36:18.167Z,20.40
2022-12-08T04:39:05.172Z,20.58
2022-12-08T04:41:38.408Z,20.50
2022-12-08T04:44:25.165Z,22.45
2022-12-08T04:46:58.320Z,23.05
2022-12-08T04:49:45.160Z,23.42
2022-12-08T04:52:25.197Z,23.92
2022-12-08T04:55:19.169Z,22.33
2022-12-08T04:58:06.166Z,20.05
2022-12-08T05:00:40.248Z,21.05
2022-12-08T05:03:28.818Z,21.13
2022-12-08T05:06:02.272Z,22.67
2022-12-08T05:08:50.161Z,20.27
2022-12-08T05:11:31.181Z,19.80
2022-12-08T05:14:27.168Z,19.77
2022-12-08T05:17:21.161Z,20.38
2022-12-08T05:20:08.177Z,20.55
2022-12-08T05:22:48.163Z,20.25
2022-12-08T05:25:36.200Z,20.70
2022-12-08T05:28:40.293Z,21.00
2022-12-08T05:31:32.264Z,20.42
2022-12-08T05:34:26.173Z,21.02
2022-12-08T05:37:20.174Z,19.77
2022-12-08T05:40:07.565Z,19.85
2022-12-08T05:42:41.261Z,19.50
2022-12-08T05:45:28.218Z,19.05
2022-12-08T05:48:08.185Z,18.90
2022-12-08T05:50:56.201Z,20.80
2022-12-08T05:53:36.194Z,20.15
2022-12-08T05:56:23.173Z,20.42
2022-12-08T05:59:04.190Z,20.75
2022-12-08T06:01:51.229Z,19.38
2022-12-08T06:04:24.267Z,20.13
2022-12-08T06:07:15.925Z,19.13
2022-12-08T06:09:56.191Z,20.30
2022-12-08T06:12:50.186Z,20.42
2022-12-08T06:15:37.179Z,19.98
2022-12-08T06:18:11.742Z,22.48
2022-12-08T06:20:58.200Z,20.45
2022-12-08T06:23:38.211Z,19.95
2022-12-08T06:26:32.183Z,23.30
2022-12-08T06:29:26.172Z,22.08
2022-12-08T06:32:25.844Z,23.25
2022-12-08T06:35:16.185Z,21.65
2022-12-08T06:37:51.500Z,22.98
2022-12-08T06:40:38.193Z,21.90
2022-12-08T06:43:18.216Z,20.75
2022-12-08T06:46:12.222Z,19.50
2022-12-08T06:48:59.212Z,20.25
2022-12-08T06:51:32.275Z,22.38
2022-12-08T06:54:19.200Z,22.00
2022-12-08T06:56:59.208Z,21.48
2022-12-08T06:59:53.241Z,22.80
2022-12-08T07:02:40.242Z,23.85
2022-12-08T07:05:13.279Z,25.08
2022-12-08T07:08:00.252Z,24.85
2022-12-08T07:10:33.275Z,27.30
2022-12-08T07:13:20.237Z,24.45
2022-12-08T07:16:00.220Z,24.58
2022-12-08T07:18:48.227Z,25.42
2022-12-08T07:21:29.184Z,27.85
2022-12-08T07:24:23.218Z,26.48
2022-12-08T07:27:10.224Z,28.10
2022-12-08T07:29:43.307Z,25.50
2022-12-08T07:32:30.217Z,26.58
2022-12-08T07:35:03.316Z,23.92
2022-12-08T07:37:50.207Z,23.83
2022-12-08T07:40:23.505Z,25.63
2022-12-08T07:43:10.249Z,27.05
2022-12-08T07:45:43.337Z,25.73
2022-12-08T07:48:30.234Z,24.60
2022-12-08T07:51:08.338Z,24.13
2022-12-08T07:53:56.212Z,25.80
2022-12-08T07:56:37.223Z,22.77
2022-12-08T07:59:31.207Z,21.55
2022-12-08T08:02:25.325Z,24.42
2022-12-08T08:05:00.444Z,25.17
2022-12-08T08:07:53.325Z,24.75
2022-12-08T08:10:26.376Z,24.55
2022-12-08T08:13:13.225Z,23.95
2022-12-08T08:15:47.449Z,27.52
2022-12-08T08:18:34.241Z,24.70
2022-12-08T08:21:43.068Z,28.75
2022-12-08T08:24:15.229Z,26.30
2022-12-08T08:26:55.264Z,22.60
2022-12-08T08:29:49.248Z,26.85
2022-12-08T08:32:40.225Z,31.50
2022-12-08T08:35:21.240Z,26.25
2022-12-08T08:38:08.248Z,24.83
2022-12-08T08:40:41.322Z,22.38
2022-12-08T08:43:38.596Z,20.80
2022-12-08T08:46:13.325Z,21.00
2022-12-08T08:49:00.237Z,22.08
2022-12-08T08:51:40.223Z,22.02
2022-12-08T08:54:34.280Z,20.60
2022-12-08T08:57:25.520Z,19.55
2022-12-08T09:00:07.569Z,20.08
2022-12-08T09:03:01.274Z,19.65
2022-12-08T09:05:48.293Z,21.13
2022-12-08T09:08:21.367Z,23.33
2022-12-08T09:11:08.241Z,21.90
2022-12-08T09:13:42.407Z,22.35
2022-12-08T09:16:29.286Z,20.50
2022-12-08T09:19:02.573Z,17.13
2022-12-08T09:21:49.261Z,19.85
2022-12-08T09:24:23.199Z,21.35
2022-12-08T09:27:10.250Z,23.30
2022-12-08T09:29:43.334Z,19.58
2022-12-08T09:32:30.275Z,20.63
2022-12-08T09:35:11.248Z,21.52
2022-12-08T09:38:05.266Z,20.67
2022-12-08T09:41:00.267Z,20.13
2022-12-08T09:43:53.382Z,19.98
2022-12-08T09:46:41.269Z,19.67
2022-12-08T09:49:24.362Z,21.83
2022-12-08T09:52:13.261Z,19.80
2022-12-08T09:54:49.379Z,20.08
2022-12-08T09:57:38.258Z,19.20
2022-12-08T10:00:14.514Z,19.60
2022-12-08T10:03:02.256Z,18.80
2022-12-08T10:05:46.239Z,18.65
2022-12-08T10:08:48.269Z,19.45
2022-12-08T10:11:53.286Z,19.00
2022-12-08T10:14:40.309Z,19.52
2022-12-08T10:17:50.283Z,19.70
2022-12-08T10:20:58.288Z,19.13
2022-12-08T10:23:36.338Z,18.67
2022-12-08T10:26:26.289Z,16.73
2022-12-08T10:29:01.439Z,18.27
2022-12-08T10:31:49.336Z,18.38
2022-12-08T10:34:26.347Z,17.10
2022-12-08T10:37:16.290Z,16.70
2022-12-08T10:39:57.299Z,18.30
2022-12-08T10:42:47.280Z,21.02
2022-12-08T10:45:48.318Z,19.75
2022-12-08T10:48:44.291Z,21.60
2022-12-08T10:51:36.289Z,17.95
2022-12-08T10:54:09.363Z,18.67
2022-12-08T10:57:02.295Z,19.08
2022-12-08T10:59:35.367Z,18.35
2022-12-08T11:02:27.389Z,19.90
2022-12-08T11:05:05.364Z,21.50
2022-12-08T11:08:00.415Z,16.98
2022-12-08T11:11:04.338Z,17.80
2022-12-08T11:13:58.291Z,17.80
2022-12-08T11:16:49.414Z,19.58
2022-12-08T11:19:24.370Z,18.88
2022-12-08T11:22:48.311Z,18.83
2022-12-08T11:25:26.417Z,19.35
2022-12-08T11:28:17.300Z,19.30
2022-12-08T11:30:57.626Z,17.58
2022-12-08T11:33:44.290Z,17.77
2022-12-08T11:36:28.299Z,17.90
2022-12-08T11:39:19.296Z,18.48
2022-12-08T11:41:53.412Z,18.50
2022-12-08T11:44:47.297Z,20.02
2022-12-08T11:47:55.569Z,19.60
2022-12-08T11:51:02.316Z,18.63
2022-12-08T11:53:54.426Z,18.73
2022-12-08T11:56:45.314Z,18.88
2022-12-08T11:59:36.291Z,18.65
2022-12-08T12:02:41.360Z,21.38
2022-12-08T12:06:12.565Z,19.15
2022-12-08T12:08:56.398Z,19.98
2022-12-08T12:12:23.306Z,18.10
2022-12-08T12:15:15.459Z,19.08
2022-12-08T12:18:39.310Z,19.42
2022-12-08T12:21:27.594Z,18.35
2022-12-08T12:24:31.574Z,19.02
2022-12-08T12:27:20.315Z,18.80
2022-12-08T12:30:18.327Z,18.55
2022-12-08T12:33:11.302Z,20.52
2022-12-08T12:35:56.320Z,21.45
2022-12-08T12:39:14.345Z,22.33
2022-12-08T12:42:16.346Z,20.60
2022-12-08T12:45:23.322Z,21.95
2022-12-08T12:47:59.945Z,23.77
2022-12-08T12:50:52.321Z,22.48
2022-12-08T12:53:25.390Z,23.00
2022-12-08T12:56:14.317Z,24.42
2022-12-08T12:58:49.258Z,21.00
2022-12-08T13:01:44.414Z,19.55
2022-12-08T13:04:17.384Z,21.60
2022-12-08T13:07:05.337Z,23.80
2022-12-08T13:09:42.549Z,21.98
2022-12-08T13:12:31.318Z,19.73
2022-12-08T13:15:18.356Z,20.45
2022-12-08T13:18:05.335Z,21.30
2022-12-08T13:20:48.424Z,21.13
2022-12-08T13:23:43.334Z,20.35
2022-12-08T13:26:38.378Z,19.90
2022-12-08T13:29:36.328Z,19.60
2022-12-08T13:33:16.286Z,19.58
2022-12-08T13:36:04.355Z,20.92
2022-12-08T13:38:53.326Z,19.92
2022-12-08T13:41:30.445Z,19.30
2022-12-08T13:49:03.333Z,20.95
2022-12-08T13:55:49.560Z,18.67
2022-12-08T13:57:50.399Z,18.67
2022-12-08T14:00:44.339Z,20.63
2022-12-08T14:03:38.390Z,20.40
2022-12-08T14:06:39.350Z,21.70
2022-12-08T14:09:30.392Z,21.52
2022-12-08T14:12:08.475Z,20.55
2022-12-08T14:15:03.861Z,21.85
2022-12-08T14:17:37.703Z,26.88
2022-12-08T14:20:31.348Z,26.50
2022-12-08T14:23:12.366Z,29.77
2022-12-08T14:26:06.355Z,30.77
2022-12-08T14:28:53.478Z,22.90
2022-12-08T14:31:26.470Z,21.33
2022-12-08T14:34:13.356Z,19.23
2022-12-08T14:36:46.506Z,21.73
2022-12-08T14:39:34.369Z,21.42
2022-12-08T14:42:14.351Z,22.10
2022-12-08T14:45:21.369Z,22.42
2022-12-08T14:47:54.438Z,21.00
2022-12-08T14:51:08.363Z,21.65
2022-12-08T14:53:53.624Z,23.10
2022-12-08T14:56:43.371Z,28.75
2022-12-08T14:59:25.447Z,31.02
2022-12-08T15:02:31.372Z,32.25
2022-12-08T15:05:20.489Z,34.70
2022-12-08T15:08:10.482Z,30.83
2022-12-08T15:10:54.382Z,29.17
2022-12-08T15:13:48.390Z,28.83
2022-12-08T15:16:38.407Z,28.20
2022-12-08T15:19:47.375Z,29.80
2022-12-08T15:22:35.397Z,31.17
2022-12-08T15:25:08.799Z,32.63
2022-12-08T15:27:55.392Z,32.15
2022-12-08T15:30:35.380Z,31.67
2022-12-08T15:33:22.385Z,31.05
2022-12-08T15:35:57.465Z,31.67
2022-12-08T15:38:44.391Z,33.00
2022-12-08T15:41:17.456Z,30.45
2022-12-08T15:44:04.409Z,23.98
2022-12-08T15:46:37.510Z,25.90
2022-12-08T15:49:29.420Z,26.08
2022-12-08T15:52:11.276Z,25.75
2022-12-08T15:54:58.412Z,27.23
2022-12-08T15:58:24.920Z,27.25
2022-12-08T16:00:53.450Z,26.83
2022-12-08T16:09:48.541Z,30.23
2022-12-08T16:15:58.997Z,26.52
2022-12-08T16:18:49.408Z,26.70
2022-12-08T16:22:04.684Z,26.55
2022-12-08T16:24:43.411Z,30.55
2022-12-08T16:28:00.355Z,41.38
2022-12-08T16:30:36.429Z,36.58
2022-12-08T16:33:30.452Z,40.58
2022-12-08T16:36:24.415Z,45.65
2022-12-08T16:39:18.431Z,46.60
2022-12-08T16:42:23.414Z,47.33
2022-12-08T16:45:03.822Z,44.65
2022-12-08T16:47:56.392Z,49.63
2022-12-08T16:50:32.522Z,57.53
2022-12-08T16:53:19.392Z,65.05
2022-12-08T16:55:54.496Z,62.65
2022-12-08T16:58:41.462Z,60.13
2022-12-08T17:01:26.595Z,58.47
2022-12-08T17:04:31.367Z,70.10
2022-12-08T17:07:18.391Z,50.35
2022-12-08T17:09:51.511Z,47.80
2022-12-08T17:12:38.415Z,72.10
2022-12-08T17:15:14.486Z,64.55
2022-12-08T17:18:01.399Z,58.47
2022-12-08T17:20:36.270Z,53.92
2022-12-08T17:23:23.430Z,48.63
2022-12-08T17:26:09.515Z,44.88
2022-12-08T17:29:01.150Z,47.35
2022-12-08T17:31:35.688Z,44.03
2022-12-08T17:34:22.429Z,50.28
2022-12-08T17:36:55.766Z,49.95
2022-12-08T17:39:43.418Z,54.97
2022-12-08T17:42:16.518Z,52.75
2022-12-08T17:45:03.602Z,53.15
2022-12-08T17:47:36.522Z,56.90
2022-12-08T17:50:23.479Z,55.28
2022-12-08T17:52:57.519Z,53.45
2022-12-08T17:55:45.757Z,61.65
2022-12-08T17:58:18.528Z,49.95
2022-12-08T18:01:05.467Z,48.10
2022-12-08T18:03:38.558Z,46.38
2022-12-08T18:06:29.596Z,42.28
2022-12-08T18:09:13.460Z,39.20
2022-12-08T18:12:00.419Z,36.85
2022-12-08T18:14:40.462Z,35.25
2022-12-08T18:17:34.504Z,37.63
2022-12-08T18:20:21.443Z,36.13
2022-12-08T18:23:01.463Z,36.38
2022-12-08T18:25:55.545Z,36.95
2022-12-08T18:28:43.445Z,35.70
2022-12-08T18:31:19.646Z,39.83
2022-12-08T18:34:06.447Z,40.83
2022-12-08T18:36:46.443Z,41.92
2022-12-08T18:39:39.458Z,40.85
2022-12-08T18:42:24.595Z,43.38
2022-12-08T18:45:15.746Z,49.08
2022-12-08T18:47:52.575Z,57.33
2022-12-08T18:50:39.433Z,53.45
2022-12-08T18:53:12.546Z,46.75
2022-12-08T18:55:59.511Z,38.70
2022-12-08T18:58:32.536Z,39.35
2022-12-08T19:01:22.497Z,44.13
2022-12-08T19:07:17.444Z,65.55
2022-12-08T19:10:06.045Z,44.78
2022-12-08T19:12:39.594Z,46.97
2022-12-08T19:15:27.496Z,41.17
2022-12-08T19:18:07.475Z,39.25
2022-12-08T19:21:03.533Z,43.90
2022-12-08T19:23:50.452Z,40.83
2022-12-08T19:26:24.540Z,36.83
2022-12-08T19:29:11.447Z,36.15
2022-12-08T19:31:44.637Z,33.22
2022-12-08T19:34:31.477Z,31.63
2022-12-08T19:37:04.553Z,29.63
2022-12-08T19:40:09.464Z,31.45
2022-12-08T19:43:07.454Z,34.00
2022-12-08T19:45:54.610Z,31.73
2022-12-08T19:48:34.518Z,33.17
2022-12-08T19:51:21.473Z,33.30
2022-12-08T19:54:01.472Z,32.22
2022-12-08T19:56:48.448Z,32.47
2022-12-08T19:59:28.498Z,31.63
2022-12-08T20:02:24.615Z,32.25
2022-12-08T20:05:19.471Z,31.38
2022-12-08T20:08:13.499Z,31.05
2022-12-08T20:11:07.469Z,34.22
2022-12-08T20:14:01.496Z,32.15
2022-12-08T20:16:48.548Z,29.88
2022-12-08T20:19:21.697Z,32.55
2022-12-08T20:22:08.482Z,36.00
2022-12-08T20:24:41.554Z,34.90
2022-12-08T20:27:30.469Z,37.45
2022-12-08T20:30:04.174Z,37.67
2022-12-08T20:33:05.497Z,35.88
2022-12-08T20:36:00.529Z,33.70
2022-12-08T20:38:47.520Z,33.83
2022-12-08T20:41:23.355Z,34.25
2022-12-08T20:44:11.498Z,33.75
2022-12-08T20:46:49.203Z,33.22
2022-12-08T20:49:36.515Z,34.42
2022-12-08T20:52:09.728Z,30.73
2022-12-08T20:54:56.541Z,29.58
2022-12-08T20:57:30.914Z,29.38
2022-12-08T21:00:17.696Z,39.92
2022-12-08T21:02:56.254Z,41.50
2022-12-08T21:05:45.579Z,37.17
2022-12-08T21:08:19.653Z,38.85
2022-12-08T21:11:06.588Z,36.80
2022-12-08T21:13:46.516Z,37.88
2022-12-08T21:16:33.597Z,39.28
2022-12-08T21:19:06.719Z,41.50
2022-12-08T21:21:53.533Z,40.70
2022-12-08T21:24:34.668Z,45.35
2022-12-08T21:27:28.504Z,51.08
2022-12-08T21:30:23.532Z,46.00
2022-12-08T21:33:10.654Z,40.75
2022-12-08T21:35:44.936Z,44.72
2022-12-08T21:38:31.542Z,69.13
2022-12-08T21:41:22.513Z,85.25
2022-12-08T21:44:16.729Z,70.65
2022-12-08T21:47:03.647Z,40.58
2022-12-08T21:49:36.765Z,31.55
2022-12-08T21:52:23.632Z,31.30
2022-12-08T21:54:56.780Z,30.42
2022-12-08T21:57:43.784Z,31.17
2022-12-08T22:00:28.805Z,31.42
2022-12-08T22:03:19.722Z,26.60
2022-12-08T22:06:00.588Z,26.33
2022-12-08T22:08:48.693Z,25.95
2022-12-08T22:11:28.634Z,26.23
2022-12-08T22:14:22.522Z,24.85
2022-12-08T22:17:09.594Z,24.15
2022-12-08T22:19:50.690Z,22.98
2022-12-08T22:22:46.566Z,25.38
2022-12-08T22:25:33.521Z,25.63
2022-12-08T22:28:06.781Z,26.23
2022-12-08T22:30:53.805Z,26.67
2022-12-08T22:33:26.645Z,26.90
2022-12-08T22:36:14.531Z,27.25
2022-12-08T22:38:47.873Z,27.45
2022-12-08T22:41:34.541Z,27.20
2022-12-08T22:44:14.569Z,31.67
2022-12-08T22:47:01.711Z,33.97
2022-12-08T22:49:36.537Z,32.38
2022-12-08T22:52:23.530Z,36.33
2022-12-08T22:54:56.728Z,36.80
2022-12-08T22:57:43.652Z,31.73
2022-12-08T23:00:18.909Z,29.70
2022-12-08T23:03:05.795Z,30.27
2022-12-08T23:05:44.712Z,30.83
2022-12-08T23:08:31.699Z,29.77
2022-12-08T23:11:04.636Z,28.92
2022-12-08T23:13:51.606Z,28.13
2022-12-08T23:16:24.672Z,27.23
2022-12-08T23:19:29.629Z,26.17
2022-12-08T23:22:28.732Z,25.45
2022-12-08T23:25:24.636Z,25.05
2022-12-08T23:28:11.738Z,25.77
2022-12-08T23:30:48.779Z,24.98
2022-12-08T23:33:42.719Z,27.13
2022-12-08T23:36:32.576Z,26.88
2022-12-08T23:39:05.686Z,24.60
2022-12-08T23:41:52.805Z,24.00
2022-12-08T23:44:26.009Z,22.80
2022-12-08T23:47:12.658Z,22.30
2022-12-08T23:49:45.698Z,24.02
2022-12-08T23:52:32.668Z,23.48
2022-12-08T23:55:12.644Z,20.48
2022-12-08T23:57:59.562Z,19.85
